createdAt,value
2022-10-06T00:06:14.292Z,24.51
2022-10-06T00:16:21.028Z,24.47
2022-10-06T00:26:28.008Z,24.46
2022-10-06T00:36:34.314Z,24.46
2022-10-06T00:46:41.037Z,24.47
2022-10-06T00:56:48.024Z,24.46
2022-10-06T01:06:55.009Z,24.46
2022-10-06T01:17:01.955Z,24.45
2022-10-06T01:27:08.791Z,24.42
2022-10-06T01:37:15.779Z,24.45
2022-10-06T01:47:22.807Z,24.45
2022-10-06T01:57:29.853Z,24.44
2022-10-06T02:07:36.789Z,24.41
2022-10-06T02:17:43.724Z,24.43
2022-10-06T02:27:50.799Z,24.42
2022-10-06T02:37:57.536Z,24.42
2022-10-06T02:48:04.873Z,24.44
2022-10-06T02:58:11.711Z,24.45
2022-10-06T03:08:18.471Z,24.42
2022-10-06T03:18:26.036Z,24.43
2022-10-06T03:28:34.131Z,24.43
2022-10-06T03:38:41.436Z,24.41
2022-10-06T03:48:48.177Z,24.44
2022-10-06T03:58:54.951Z,24.40
2022-10-06T04:09:01.731Z,24.41
2022-10-06T04:19:08.734Z,24.40
2022-10-06T04:29:15.767Z,24.44
2022-10-06T04:39:22.842Z,24.44
2022-10-06T04:49:29.861Z,24.40
2022-10-06T04:59:37.124Z,24.42
2022-10-06T05:09:44.021Z,24.38
2022-10-06T05:19:50.575Z,24.40
2022-10-06T05:29:57.664Z,24.39
2022-10-06T05:40:04.333Z,24.41
2022-10-06T05:50:11.260Z,24.39
2022-10-06T06:00:18.098Z,24.35
2022-10-06T06:10:24.925Z,24.35
2022-10-06T06:20:31.996Z,24.37
2022-10-06T06:30:38.725Z,24.34
2022-10-06T06:40:45.565Z,24.38
2022-10-06T06:50:52.517Z,24.37
2022-10-06T07:00:59.396Z,24.36
2022-10-06T07:11:06.537Z,24.33
2022-10-06T07:21:13.822Z,24.35
2022-10-06T07:31:20.945Z,24.34
2022-10-06T07:41:27.969Z,24.35
2022-10-06T07:51:34.729Z,24.37
2022-10-06T08:01:41.549Z,24.34
2022-10-06T08:11:48.852Z,24.36
2022-10-06T08:21:55.233Z,24.34
2022-10-06T08:32:02.251Z,24.44
2022-10-06T08:42:08.878Z,24.58
2022-10-06T08:52:15.546Z,24.59
2022-10-06T09:02:21.855Z,24.60
2022-10-06T09:12:29.131Z,24.61
2022-10-06T09:22:35.662Z,24.61
2022-10-06T09:32:42.631Z,24.65
2022-10-06T09:42:49.483Z,24.57
2022-10-06T09:52:56.255Z,24.54
2022-10-06T10:03:03.335Z,24.62
2022-10-06T10:13:09.452Z,24.64
2022-10-06T10:23:15.315Z,24.61
2022-10-06T10:33:22.110Z,24.59
2022-10-06T10:43:28.896Z,24.66
2022-10-06T10:53:37.711Z,24.71
2022-10-06T11:03:47.840Z,24.65
2022-10-06T11:13:55.308Z,24.63
2022-10-06T11:24:01.854Z,24.59
2022-10-06T11:34:09.384Z,24.58
2022-10-06T11:44:16.653Z,24.59
2022-10-06T11:59:43.631Z,24.60
2022-10-06T12:09:52.293Z,24.59
2022-10-06T12:19:59.533Z,24.57
2022-10-06T12:30:06.333Z,24.55
2022-10-06T12:40:13.199Z,24.58
2022-10-06T12:50:19.382Z,24.57
2022-10-06T13:10:32.587Z,24.55
2022-10-06T13:20:39.641Z,24.57
2022-10-06T13:30:46.964Z,24.55
2022-10-06T13:40:53.994Z,24.51
2022-10-06T13:51:00.707Z,24.48
2022-10-06T14:01:07.891Z,24.43
2022-10-06T14:11:14.805Z,24.44
2022-10-06T14:21:20.988Z,24.47
2022-10-06T14:31:27.373Z,24.46
2022-10-06T14:41:33.995Z,24.43
2022-10-06T14:51:41.000Z,24.39
2022-10-06T15:01:47.668Z,24.40
2022-10-06T15:11:54.034Z,24.40
2022-10-06T15:22:00.641Z,24.38
2022-10-06T15:32:07.214Z,24.36
2022-10-06T15:42:14.343Z,24.38
2022-10-06T15:52:20.755Z,24.39
2022-10-06T16:02:27.294Z,24.38
2022-10-06T16:12:34.438Z,24.38
2022-10-06T16:22:41.677Z,24.45
2022-10-06T16:32:48.327Z,24.48
2022-10-06T16:42:54.525Z,24.51
2022-10-06T16:53:00.846Z,24.51
2022-10-06T17:03:06.698Z,24.52
2022-10-06T17:13:12.720Z,24.54
2022-10-06T17:23:19.120Z,24.52
2022-10-06T17:33:25.427Z,24.60
2022-10-06T17:43:31.972Z,24.60
2022-10-06T17:53:38.085Z,24.65
2022-10-06T18:03:44.434Z,24.65
2022-10-06T18:13:50.822Z,24.65
2022-10-06T18:23:57.501Z,24.66
2022-10-06T18:44:15.576Z,24.71
2022-10-06T18:54:21.628Z,24.74
2022-10-06T19:04:27.484Z,24.78
2022-10-06T19:14:33.954Z,24.75
2022-10-06T19:24:40.397Z,24.83
2022-10-06T19:34:46.927Z,24.84
2022-10-06T19:44:53.666Z,24.85
2022-10-06T19:55:00.523Z,24.88
2022-10-06T20:05:06.658Z,24.89
2022-10-06T20:15:13.118Z,24.88
2022-10-06T20:25:19.327Z,24.80
2022-10-06T20:35:26.428Z,24.93
2022-10-06T20:45:32.315Z,24.92
2022-10-06T20:55:38.367Z,24.90
2022-10-06T21:05:45.187Z,24.88
2022-10-06T21:15:51.526Z,24.91
2022-10-06T21:25:58.032Z,24.88
2022-10-06T21:36:04.715Z,24.86
2022-10-06T21:46:28.055Z,24.83
2022-10-06T21:56:24.119Z,24.78
2022-10-06T22:06:30.909Z,24.74
2022-10-06T22:16:37.775Z,24.66
2022-10-06T22:26:44.693Z,24.59
2022-10-06T22:36:51.923Z,24.60
2022-10-06T22:46:59.125Z,24.56
2022-10-06T22:57:06.119Z,24.54
2022-10-06T23:07:13.001Z,24.50
2022-10-06T23:17:20.035Z,24.45
2022-10-06T23:27:27.289Z,24.50
2022-10-06T23:37:34.672Z,24.46
2022-10-06T23:47:41.601Z,24.43
2022-10-06T23:57:48.894Z,24.45
